createdAt,value
2022-11-29T00:00:50.558Z,7.80
2022-11-29T00:03:17.424Z,17.53
2022-11-29T00:05:44.161Z,10.30
2022-11-29T00:08:10.832Z,15.00
2022-11-29T00:10:38.066Z,12.43
2022-11-29T00:13:05.507Z,8.13
2022-11-29T00:15:39.488Z,18.00
2022-11-29T00:18:07.396Z,7.93
2022-11-29T00:20:34.892Z,12.80
2022-11-29T00:23:01.774Z,11.63
2022-11-29T00:25:28.456Z,8.13
2022-11-29T00:27:55.252Z,11.90
2022-11-29T00:30:22.011Z,12.30
2022-11-29T00:32:48.708Z,8.50
2022-11-29T00:35:15.531Z,14.33
2022-11-29T00:37:42.311Z,12.20
2022-11-29T00:40:09.308Z,7.27
2022-11-29T00:42:35.972Z,12.17
2022-11-29T00:45:02.852Z,10.97
2022-11-29T00:47:29.532Z,12.10
2022-11-29T00:49:56.205Z,8.33
2022-11-29T00:52:22.912Z,16.93
2022-11-29T00:54:49.670Z,9.90
2022-11-29T00:57:16.376Z,14.17
2022-11-29T00:59:43.014Z,9.10
2022-11-29T01:02:09.791Z,16.67
2022-11-29T01:04:36.477Z,8.20
2022-11-29T01:07:03.192Z,14.00
2022-11-29T01:09:29.901Z,11.40
2022-11-29T01:11:56.566Z,14.40
2022-11-29T01:14:23.373Z,10.77
2022-11-29T01:16:50.116Z,24.80
2022-11-29T01:19:16.915Z,11.93
2022-11-29T01:21:43.719Z,13.20
2022-11-29T01:24:10.437Z,14.60
2022-11-29T01:26:37.256Z,15.27
2022-11-29T01:29:04.029Z,17.10
2022-11-29T01:31:33.557Z,14.70
2022-11-29T01:34:02.537Z,10.57
2022-11-29T01:36:29.747Z,14.87
2022-11-29T01:38:59.471Z,13.57
2022-11-29T01:41:30.110Z,12.43
2022-11-29T01:43:58.997Z,12.27
2022-11-29T01:46:27.325Z,16.40
2022-11-29T01:48:58.872Z,11.63
2022-11-29T01:51:27.588Z,15.80
2022-11-29T01:53:55.115Z,14.10
2022-11-29T01:56:23.200Z,11.77
2022-11-29T01:58:50.156Z,16.60
2022-11-29T02:01:16.997Z,16.53
2022-11-29T02:03:43.773Z,17.43
2022-11-29T02:06:10.934Z,23.10
2022-11-29T02:08:41.340Z,16.43
2022-11-29T02:11:26.306Z,19.13
2022-11-29T02:14:20.743Z,16.67
2022-11-29T02:16:58.303Z,14.73
2022-11-29T02:19:42.848Z,13.73
2022-11-29T02:22:13.602Z,16.57
2022-11-29T02:24:56.885Z,20.80
2022-11-29T02:27:35.625Z,16.60
2022-11-29T02:30:09.283Z,12.37
2022-11-29T02:32:54.291Z,16.07
2022-11-29T02:35:51.667Z,17.73
2022-11-29T02:38:43.088Z,15.13
2022-11-29T02:41:12.791Z,16.37
2022-11-29T02:44:20.680Z,19.37
2022-11-29T02:46:56.199Z,16.47
2022-11-29T02:49:25.689Z,17.97
2022-11-29T02:52:01.910Z,15.70
2022-11-29T02:54:33.901Z,19.90
2022-11-29T02:57:11.704Z,24.43
2022-11-29T02:59:54.947Z,21.33
2022-11-29T03:02:52.272Z,16.87
2022-11-29T03:05:29.857Z,23.00
2022-11-29T03:08:23.310Z,25.00
2022-11-29T03:11:05.179Z,26.10
2022-11-29T03:13:54.885Z,18.00
2022-11-29T03:16:28.952Z,35.40
2022-11-29T03:19:13.578Z,24.40
2022-11-29T03:21:55.633Z,24.87
2022-11-29T03:24:36.829Z,26.97
2022-11-29T03:27:46.466Z,31.17
2022-11-29T03:30:17.980Z,27.00
2022-11-29T03:32:51.019Z,21.63
2022-11-29T03:35:20.744Z,35.17
2022-11-29T03:38:14.515Z,34.43
2022-11-29T03:40:52.326Z,25.17
2022-11-29T03:43:32.929Z,29.27
2022-11-29T03:46:12.619Z,29.10
2022-11-29T03:48:52.619Z,20.47
2022-11-29T03:51:41.365Z,26.40
2022-11-29T03:54:16.824Z,33.47
2022-11-29T03:56:43.868Z,28.60
2022-11-29T03:59:23.846Z,31.43
2022-11-29T04:02:02.391Z,28.00
2022-11-29T04:04:32.062Z,37.20
2022-11-29T04:07:27.317Z,35.97
2022-11-29T04:10:31.773Z,47.63
2022-11-29T04:13:10.257Z,49.90
2022-11-29T04:15:42.748Z,42.93
2022-11-29T04:18:09.431Z,39.10
2022-11-29T04:20:59.066Z,52.00
2022-11-29T04:24:11.164Z,52.20
2022-11-29T04:27:09.295Z,51.47
2022-11-29T04:29:51.109Z,61.43
2022-11-29T04:32:35.688Z,64.83
2022-11-29T04:35:20.535Z,68.37
2022-11-29T04:37:53.641Z,71.80
2022-11-29T04:40:33.599Z,58.20
2022-11-29T04:43:45.214Z,65.13
2022-11-29T04:46:18.189Z,67.23
2022-11-29T04:48:56.528Z,62.10
2022-11-29T04:51:29.821Z,65.87
2022-11-29T04:54:08.386Z,67.50
2022-11-29T04:56:35.067Z,73.07
2022-11-29T04:59:05.377Z,77.30
2022-11-29T05:01:50.511Z,62.57
2022-11-29T05:04:21.172Z,74.77
2022-11-29T05:07:32.477Z,72.40
2022-11-29T05:10:25.207Z,67.43
2022-11-29T05:13:11.702Z,69.07
2022-11-29T05:16:02.639Z,70.83
2022-11-29T05:18:59.040Z,80.50
2022-11-29T05:21:43.783Z,79.00
2022-11-29T05:24:25.101Z,81.60
2022-11-29T05:26:59.223Z,59.53
2022-11-29T05:29:49.270Z,69.00
2022-11-29T05:32:31.141Z,69.23
2022-11-29T05:35:16.765Z,68.97
2022-11-29T05:37:54.324Z,61.43
2022-11-29T05:40:43.973Z,75.43
2022-11-29T05:43:35.458Z,63.23
2022-11-29T05:46:12.852Z,73.87
2022-11-29T05:49:24.185Z,59.87
2022-11-29T05:52:03.523Z,61.97
2022-11-29T05:54:40.795Z,66.60
2022-11-29T05:57:44.801Z,73.20
2022-11-29T06:00:14.595Z,74.23
2022-11-29T06:02:50.312Z,74.40
2022-11-29T06:05:23.952Z,81.03
2022-11-29T06:08:05.221Z,89.83
2022-11-29T06:10:36.522Z,87.13
2022-11-29T06:13:37.515Z,85.97
2022-11-29T06:16:19.230Z,110.30
2022-11-29T06:19:07.666Z,113.77
2022-11-29T06:21:43.996Z,116.70
2022-11-29T06:24:50.835Z,106.03
2022-11-29T06:27:35.242Z,127.10
2022-11-29T06:30:15.169Z,148.53
2022-11-29T06:33:23.729Z,126.33
2022-11-29T06:36:17.566Z,152.63
2022-11-29T06:38:44.669Z,141.73
2022-11-29T06:41:24.287Z,152.93
2022-11-29T06:43:51.518Z,144.70
2022-11-29T06:46:37.066Z,151.60
2022-11-29T06:49:16.953Z,129.23
2022-11-29T06:52:07.765Z,151.87
2022-11-29T06:54:50.682Z,152.57
2022-11-29T06:57:17.346Z,154.23
2022-11-29T07:00:03.736Z,132.07
2022-11-29T07:02:48.715Z,151.13
2022-11-29T07:05:42.145Z,143.20
2022-11-29T07:08:19.796Z,140.67
2022-11-29T07:10:50.052Z,140.90
2022-11-29T07:13:18.521Z,150.47
2022-11-29T07:16:26.323Z,151.67
2022-11-29T07:19:17.683Z,143.57
2022-11-29T07:22:22.605Z,134.77
2022-11-29T07:24:52.370Z,145.47
2022-11-29T07:27:41.037Z,142.47
2022-11-29T07:30:19.940Z,145.77
2022-11-29T07:33:00.471Z,157.40
2022-11-29T07:35:39.236Z,130.00
2022-11-29T07:38:15.213Z,133.83
2022-11-29T07:41:39.179Z,143.90
2022-11-29T07:44:26.280Z,129.97
2022-11-29T07:46:53.028Z,154.33
2022-11-29T07:49:19.777Z,142.90
2022-11-29T07:51:46.606Z,136.03
2022-11-29T07:54:17.480Z,132.83
2022-11-29T07:56:44.338Z,147.63
2022-11-29T07:59:12.497Z,136.60
2022-11-29T08:01:39.872Z,150.37
2022-11-29T08:04:07.514Z,156.73
2022-11-29T08:06:34.902Z,144.50
2022-11-29T08:09:01.803Z,143.80
2022-11-29T08:11:28.645Z,150.03
2022-11-29T08:13:59.987Z,169.50
2022-11-29T08:16:26.780Z,165.60
2022-11-29T08:18:53.816Z,155.23
2022-11-29T08:21:20.673Z,151.90
2022-11-29T08:23:51.095Z,148.17
2022-11-29T08:26:19.459Z,147.80
2022-11-29T08:28:49.155Z,129.00
2022-11-29T08:31:15.885Z,130.63
2022-11-29T08:33:43.806Z,117.17
2022-11-29T08:36:20.672Z,118.27
2022-11-29T08:38:47.793Z,126.17
2022-11-29T08:41:15.872Z,114.37
2022-11-29T08:43:43.332Z,141.03
2022-11-29T08:46:16.709Z,119.30
2022-11-29T08:48:45.492Z,105.53
2022-11-29T08:51:12.194Z,123.03
2022-11-29T08:53:41.755Z,115.97
2022-11-29T08:59:05.920Z,115.20
2022-11-29T09:01:32.900Z,114.00
2022-11-29T09:03:59.832Z,106.77
2022-11-29T09:06:28.400Z,113.33
2022-11-29T09:08:56.465Z,115.23
2022-11-29T09:11:25.182Z,117.03
2022-11-29T09:14:04.126Z,112.30
2022-11-29T09:16:34.487Z,114.53
2022-11-29T09:19:01.824Z,97.87
2022-11-29T09:21:30.663Z,112.13
2022-11-29T09:24:01.299Z,102.50
2022-11-29T09:26:31.530Z,107.87
2022-11-29T09:29:03.318Z,116.43
2022-11-29T09:31:31.135Z,109.37
2022-11-29T09:33:58.479Z,115.20
2022-11-29T09:36:28.831Z,103.53
2022-11-29T09:38:56.160Z,98.87
2022-11-29T09:41:48.401Z,104.50
2022-11-29T09:44:43.419Z,98.13
2022-11-29T09:47:10.160Z,96.03
2022-11-29T09:49:44.108Z,112.53
2022-11-29T09:52:22.499Z,98.50
2022-11-29T09:55:19.373Z,96.07
2022-11-29T09:57:48.717Z,107.03
2022-11-29T10:00:19.843Z,106.03
2022-11-29T10:02:55.178Z,95.57
2022-11-29T10:05:41.126Z,95.90
2022-11-29T10:08:16.737Z,87.53
2022-11-29T10:10:47.149Z,88.07
2022-11-29T10:13:29.656Z,95.43
2022-11-29T10:16:24.902Z,98.10
2022-11-29T10:19:06.012Z,87.90
2022-11-29T10:21:36.620Z,90.73
2022-11-29T10:24:09.857Z,81.27
2022-11-29T10:26:37.364Z,93.23
2022-11-29T10:29:04.454Z,88.47
2022-11-29T10:31:44.019Z,83.43
2022-11-29T10:34:20.495Z,89.77
2022-11-29T10:36:59.722Z,90.33
2022-11-29T10:39:42.218Z,94.03
2022-11-29T10:42:47.464Z,85.07
2022-11-29T10:45:17.143Z,93.83
2022-11-29T10:47:47.232Z,79.77
2022-11-29T10:50:23.587Z,84.50
2022-11-29T10:52:50.502Z,73.13
2022-11-29T10:55:18.039Z,79.03
2022-11-29T10:58:09.852Z,84.70
2022-11-29T11:01:00.395Z,71.47
2022-11-29T11:03:35.198Z,69.80
2022-11-29T11:06:18.516Z,81.30
2022-11-29T11:08:56.957Z,75.47
2022-11-29T11:11:30.263Z,77.33
2022-11-29T11:14:05.253Z,78.30
2022-11-29T11:16:37.051Z,78.00
2022-11-29T11:19:33.584Z,75.40
2022-11-29T11:22:02.459Z,66.53
2022-11-29T11:24:32.117Z,64.43
2022-11-29T11:27:00.385Z,69.53
2022-11-29T11:29:37.640Z,71.77
2022-11-29T11:32:07.599Z,55.20
2022-11-29T11:34:38.413Z,59.03
2022-11-29T11:37:29.992Z,59.07
2022-11-29T11:39:59.913Z,60.70
2022-11-29T11:42:38.862Z,57.13
2022-11-29T11:45:11.677Z,59.83
2022-11-29T11:47:43.191Z,54.87
2022-11-29T11:50:28.973Z,53.53
2022-11-29T11:53:03.934Z,50.27
2022-11-29T11:55:40.531Z,55.17
2022-11-29T11:58:13.038Z,61.93
2022-11-29T12:04:01.612Z,78.47
2022-11-29T12:06:40.584Z,56.30
2022-11-29T12:09:44.835Z,62.37
2022-11-29T12:12:28.381Z,67.73
2022-11-29T12:14:58.031Z,61.67
2022-11-29T12:17:43.387Z,63.30
2022-11-29T12:20:39.699Z,62.27
2022-11-29T12:23:12.324Z,64.63
2022-11-29T12:25:57.234Z,60.70
2022-11-29T12:28:33.627Z,59.07
2022-11-29T12:31:14.422Z,53.20
2022-11-29T12:33:59.666Z,67.10
2022-11-29T12:36:48.451Z,69.83
2022-11-29T12:39:31.176Z,55.43
2022-11-29T12:42:06.827Z,51.53
2022-11-29T12:45:00.640Z,73.87
2022-11-29T12:47:38.398Z,55.80
2022-11-29T12:50:14.525Z,52.67
2022-11-29T12:52:56.417Z,56.47
2022-11-29T12:55:25.076Z,56.67
2022-11-29T12:58:10.954Z,52.80
2022-11-29T13:01:21.189Z,57.03
2022-11-29T13:04:16.199Z,54.10
2022-11-29T13:07:16.768Z,59.30
2022-11-29T13:10:37.654Z,64.70
2022-11-29T13:13:13.317Z,61.10
2022-11-29T13:15:44.845Z,54.97
2022-11-29T13:18:26.263Z,71.13
2022-11-29T13:21:06.822Z,53.80
2022-11-29T13:24:10.536Z,66.30
2022-11-29T13:26:40.149Z,67.83
2022-11-29T13:29:12.600Z,61.17
2022-11-29T13:31:40.203Z,68.27
2022-11-29T13:34:30.430Z,78.80
2022-11-29T13:37:19.115Z,66.30
2022-11-29T13:40:09.464Z,62.23
2022-11-29T13:42:55.551Z,64.77
2022-11-29T13:45:44.931Z,67.80
2022-11-29T13:48:28.400Z,60.17
2022-11-29T13:50:56.871Z,67.40
2022-11-29T13:53:25.724Z,60.70
2022-11-29T13:56:02.754Z,61.53
2022-11-29T13:58:30.657Z,63.43
2022-11-29T14:01:08.240Z,64.13
2022-11-29T14:03:40.763Z,54.90
2022-11-29T14:06:12.066Z,58.77
2022-11-29T14:09:17.316Z,57.60
2022-11-29T14:11:34.172Z,71.63
2022-11-29T14:14:18.381Z,59.60
2022-11-29T14:16:49.689Z,63.03
2022-11-29T14:19:21.928Z,59.10
2022-11-29T14:22:05.361Z,68.67
2022-11-29T14:24:38.047Z,68.17
2022-11-29T14:27:08.933Z,74.83
2022-11-29T14:29:48.222Z,78.20
2022-11-29T14:32:45.961Z,66.53
2022-11-29T14:35:13.035Z,64.40
2022-11-29T14:37:51.788Z,76.40
2022-11-29T14:40:24.371Z,60.97
2022-11-29T14:42:52.843Z,65.93
2022-11-29T14:45:32.657Z,66.80
2022-11-29T14:47:59.920Z,60.63
2022-11-29T14:50:35.115Z,64.20
2022-11-29T14:53:03.167Z,64.33
2022-11-29T14:55:42.921Z,61.63
2022-11-29T14:58:18.614Z,54.77
2022-11-29T15:00:48.278Z,81.20
2022-11-29T15:03:24.188Z,54.67
2022-11-29T15:06:01.170Z,59.17
2022-11-29T15:08:56.185Z,62.10
2022-11-29T15:11:50.388Z,60.27
2022-11-29T15:14:26.260Z,52.43
2022-11-29T15:16:52.993Z,68.17
2022-11-29T15:19:41.561Z,63.47
2022-11-29T15:22:26.773Z,56.03
2022-11-29T15:25:11.298Z,57.70
2022-11-29T15:27:49.166Z,64.87
2022-11-29T15:30:35.685Z,56.70
2022-11-29T15:33:06.004Z,54.47
2022-11-29T15:35:36.777Z,63.77
2022-11-29T15:38:03.923Z,50.03
2022-11-29T15:40:35.574Z,58.47
2022-11-29T15:43:36.036Z,50.30
2022-11-29T15:46:02.983Z,60.57
2022-11-29T15:48:32.091Z,67.27
2022-11-29T15:51:17.126Z,61.57
2022-11-29T15:53:47.892Z,51.50
2022-11-29T15:56:22.978Z,61.83
2022-11-29T15:58:52.227Z,41.97
2022-11-29T16:01:21.340Z,51.43
2022-11-29T16:03:52.311Z,55.30
2022-11-29T16:06:34.052Z,54.90
2022-11-29T16:09:01.324Z,62.60
2022-11-29T16:11:30.140Z,57.43
2022-11-29T16:14:28.225Z,61.33
2022-11-29T16:17:00.589Z,60.33
2022-11-29T16:19:33.479Z,65.63
2022-11-29T16:22:11.561Z,53.77
2022-11-29T16:24:51.010Z,63.53
2022-11-29T16:27:20.080Z,56.20
2022-11-29T16:29:48.432Z,62.90
2022-11-29T16:32:31.656Z,60.03
2022-11-29T16:35:05.674Z,65.20
2022-11-29T16:37:41.361Z,61.63
2022-11-29T16:40:24.743Z,72.67
2022-11-29T16:43:03.715Z,72.37
2022-11-29T16:45:41.830Z,69.37
2022-11-29T16:48:30.659Z,65.93
2022-11-29T16:51:25.221Z,73.97
2022-11-29T16:53:54.306Z,67.33
2022-11-29T16:56:24.522Z,67.27
2022-11-29T16:59:17.254Z,56.30
2022-11-29T17:01:49.379Z,66.00
2022-11-29T17:04:24.544Z,66.83
2022-11-29T17:06:53.736Z,66.90
2022-11-29T17:09:24.260Z,63.17
2022-11-29T17:11:52.222Z,60.80
2022-11-29T17:14:19.025Z,72.13
2022-11-29T17:16:49.231Z,63.00
2022-11-29T17:19:16.562Z,62.00
2022-11-29T17:21:43.884Z,68.03
2022-11-29T17:24:13.574Z,65.17
2022-11-29T17:26:41.292Z,59.07
2022-11-29T17:29:10.261Z,59.73
2022-11-29T17:31:37.132Z,54.27
2022-11-29T17:34:04.617Z,60.60
2022-11-29T17:36:31.941Z,65.33
2022-11-29T17:39:02.603Z,66.40
2022-11-29T17:41:30.586Z,55.03
2022-11-29T17:43:58.070Z,56.77
2022-11-29T17:46:32.094Z,67.07
2022-11-29T17:49:01.044Z,64.67
2022-11-29T17:54:15.076Z,67.90
2022-11-29T17:56:41.834Z,60.43
2022-11-29T17:59:08.678Z,55.20
2022-11-29T18:01:37.117Z,66.87
2022-11-29T18:04:06.234Z,64.77
2022-11-29T18:06:38.209Z,61.87
2022-11-29T18:09:06.829Z,63.40
2022-11-29T18:11:43.307Z,59.27
2022-11-29T18:14:25.273Z,60.63
2022-11-29T18:16:52.272Z,63.87
2022-11-29T18:19:21.360Z,56.40
2022-11-29T18:21:49.071Z,53.03
2022-11-29T18:24:16.208Z,58.80
2022-11-29T18:26:43.301Z,60.67
2022-11-29T18:29:10.433Z,56.30
2022-11-29T18:31:39.938Z,56.97
2022-11-29T18:34:11.586Z,58.13
2022-11-29T18:36:42.947Z,64.47
2022-11-29T18:39:15.627Z,56.03
2022-11-29T18:41:47.755Z,63.90
2022-11-29T18:44:16.473Z,58.50
2022-11-29T18:46:44.920Z,53.83
2022-11-29T18:49:13.706Z,55.70
2022-11-29T18:51:42.887Z,59.00
2022-11-29T18:54:10.173Z,57.23
2022-11-29T18:56:38.139Z,62.07
2022-11-29T18:59:10.998Z,69.80
2022-11-29T19:01:42.909Z,60.93
2022-11-29T19:04:15.068Z,64.57
2022-11-29T19:06:42.878Z,61.77
2022-11-29T19:09:15.289Z,64.70
2022-11-29T19:11:42.538Z,58.63
2022-11-29T19:14:11.815Z,59.27
2022-11-29T19:16:41.261Z,58.17
2022-11-29T19:19:08.347Z,61.87
2022-11-29T19:21:35.232Z,69.07
2022-11-29T19:24:05.618Z,58.07
2022-11-29T19:26:33.556Z,50.83
2022-11-29T19:29:01.657Z,59.50
2022-11-29T19:31:29.028Z,59.07
2022-11-29T19:33:56.820Z,63.93
2022-11-29T19:36:26.004Z,53.40
2022-11-29T19:38:54.140Z,56.03
2022-11-29T19:41:22.616Z,47.30
2022-11-29T19:43:49.580Z,48.63
2022-11-29T19:46:40.308Z,47.97
2022-11-29T19:49:08.519Z,57.40
2022-11-29T19:51:35.770Z,57.40
2022-11-29T19:54:05.089Z,52.33
2022-11-29T19:56:32.670Z,58.67
2022-11-29T19:59:00.041Z,50.20
2022-11-29T20:01:37.759Z,54.17
2022-11-29T20:04:04.843Z,57.20
2022-11-29T20:06:31.778Z,61.13
2022-11-29T20:08:58.616Z,58.93
2022-11-29T20:11:26.501Z,60.23
2022-11-29T20:13:57.615Z,61.70
2022-11-29T20:16:25.109Z,58.83
2022-11-29T20:18:53.043Z,58.00
2022-11-29T20:21:26.082Z,53.50
2022-11-29T20:24:05.052Z,63.03
2022-11-29T20:26:33.703Z,58.67
2022-11-29T20:29:01.793Z,48.43
2022-11-29T20:31:29.579Z,53.67
2022-11-29T20:33:59.681Z,48.93
2022-11-29T20:36:48.022Z,49.30
2022-11-29T20:39:28.639Z,52.30
2022-11-29T20:42:23.658Z,53.60
2022-11-29T20:44:57.882Z,65.87
2022-11-29T20:47:27.064Z,50.23
2022-11-29T20:49:54.208Z,50.17
2022-11-29T20:52:42.007Z,48.00
2022-11-29T20:55:09.241Z,54.37
2022-11-29T20:57:38.341Z,50.60
2022-11-29T21:00:10.518Z,60.50
2022-11-29T21:02:37.390Z,54.03
2022-11-29T21:05:04.797Z,55.17
2022-11-29T21:07:31.581Z,49.93
2022-11-29T21:10:01.393Z,54.63
2022-11-29T21:12:29.789Z,87.83
2022-11-29T21:14:57.046Z,47.97
2022-11-29T21:17:27.626Z,49.50
2022-11-29T21:19:58.791Z,49.43
2022-11-29T21:22:35.045Z,48.63
2022-11-29T21:25:24.466Z,62.50
2022-11-29T21:27:52.779Z,51.13
2022-11-29T21:30:22.753Z,47.80
2022-11-29T21:32:50.017Z,48.67
2022-11-29T21:35:17.192Z,49.60
2022-11-29T21:37:44.901Z,63.33
2022-11-29T21:40:13.843Z,49.67
2022-11-29T21:42:40.759Z,53.20
2022-11-29T21:45:13.432Z,61.33
2022-11-29T21:47:42.595Z,54.27
2022-11-29T21:50:09.753Z,59.47
2022-11-29T21:52:36.439Z,52.43
2022-11-29T21:55:03.917Z,47.33
2022-11-29T21:57:30.721Z,58.90
2022-11-29T21:59:57.470Z,48.73
2022-11-29T22:02:24.239Z,61.70
2022-11-29T22:04:50.982Z,60.03
2022-11-29T22:07:17.732Z,60.50
2022-11-29T22:09:44.481Z,54.50
2022-11-29T22:12:32.587Z,49.13
2022-11-29T22:14:58.553Z,48.83
2022-11-29T22:17:25.270Z,50.70
2022-11-29T22:19:52.048Z,50.10
2022-11-29T22:22:18.771Z,63.40
2022-11-29T22:24:45.938Z,82.47
2022-11-29T22:27:12.926Z,62.43
2022-11-29T22:29:39.627Z,76.93
2022-11-29T22:32:06.377Z,61.33
2022-11-29T22:34:33.170Z,60.03
2022-11-29T22:36:59.900Z,61.50
2022-11-29T22:39:26.738Z,60.13
2022-11-29T22:41:55.053Z,62.53
2022-11-29T22:44:23.176Z,62.27
2022-11-29T22:46:50.925Z,62.27
2022-11-29T22:49:17.780Z,58.50
2022-11-29T22:51:44.492Z,60.03
2022-11-29T22:54:15.171Z,63.67
2022-11-29T22:56:42.970Z,56.40
2022-11-29T22:59:10.043Z,58.40
2022-11-29T23:01:39.089Z,67.93
2022-11-29T23:04:08.113Z,63.43
2022-11-29T23:06:41.536Z,55.60
2022-11-29T23:09:16.462Z,58.00
2022-11-29T23:11:44.743Z,63.00
2022-11-29T23:14:12.044Z,63.70
2022-11-29T23:16:38.896Z,68.70
2022-11-29T23:19:05.771Z,56.30
2022-11-29T23:21:35.429Z,64.53
2022-11-29T23:24:02.601Z,68.03
2022-11-29T23:26:37.315Z,54.30
2022-11-29T23:29:05.791Z,57.90
2022-11-29T23:31:33.612Z,66.00
2022-11-29T23:34:01.300Z,65.77
2022-11-29T23:36:28.156Z,63.40
2022-11-29T23:38:54.822Z,71.50
2022-11-29T23:41:21.716Z,65.57
2022-11-29T23:43:48.582Z,61.93
2022-11-29T23:46:21.550Z,63.37
2022-11-29T23:48:48.586Z,60.13
2022-11-29T23:51:15.537Z,56.13
2022-11-29T23:53:42.961Z,72.40
2022-11-29T23:56:14.832Z,70.13
2022-11-29T23:58:42.030Z,74.17
